Time;durP1;ratioP1;P1;durP2;ratioP2;P2;SDS_P1;SDS_P2;PMS_P1;PMS_P2;Temp;Humidity;BMP_temperature;BMP_pressure;BME280_temperature;BME280_humidity;BME280_pressure;Samples;Min_cycle;Max_cycle;Signal;HPM_P1;HPM_P2
2021/03/01 00:00:12;;;;;;;284.67;266.57;;;1.70;99.90;;;;;;5025146;28;20481;-82
2021/03/01 00:02:43;;;;;;;265.53;248.90;;;1.70;99.90;;;;;;5013302;28;21039;-82
2021/03/01 00:05:21;;;;;;;;;;;;;;;;;;;;;
2021/03/01 00:07:47;;;;;;;283.03;264.20;;;1.60;99.90;;;;;;5032564;28;20494;-83
2021/03/01 00:10:31;;;;;;;;;;;;;;;;;;;;;
2021/03/01 00:12:59;;;;;;;285.60;269.20;;;1.50;99.90;;;;;;5013088;28;20461;-83
2021/03/01 00:15:26;;;;;;;278.67;263.50;;;1.40;99.90;;;;;;5026010;28;20448;-82
2021/03/01 00:17:55;;;;;;;289.70;271.50;;;1.20;99.90;;;;;;5032945;28;20456;-82
2021/03/01 00:20:21;;;;;;;279.05;260.50;;;1.00;99.90;;;;;;5031164;28;20824;-82
2021/03/01 00:22:47;;;;;;;271.13;254.00;;;1.00;99.90;;;;;;5032733;28;20245;-82
2021/03/01 00:25:14;;;;;;;270.70;253.73;;;0.90;99.90;;;;;;5019124;28;20461;-82
2021/03/01 00:27:43;;;;;;;267.77;251.67;;;0.90;99.90;;;;;;5012997;28;20907;-82
2021/03/01 00:30:10;;;;;;;257.15;239.45;;;0.90;99.90;;;;;;5023733;28;20514;-82
2021/03/01 00:32:37;;;;;;;263.02;240.80;;;1.00;99.90;;;;;;5032746;28;20281;-82
2021/03/01 00:35:08;;;;;;;267.30;247.00;;;1.00;99.90;;;;;;5022938;28;20281;-83
2021/03/01 00:37:34;;;;;;;260.63;242.03;;;0.90;99.90;;;;;;5012833;28;20464;-82
2021/03/01 00:40:07;;;;;;;249.20;232.13;;;0.90;99.90;;;;;;5020279;28;20588;-82
2021/03/01 00:42:33;;;;;;;256.47;238.93;;;0.80;99.90;;;;;;5032639;28;20456;-82
2021/03/01 00:45:00;;;;;;;250.37;232.33;;;0.90;99.90;;;;;;5024619;28;20814;-83
2021/03/01 00:47:34;;;;;;;253.83;236.27;;;0.90;99.90;;;;;;5012724;28;20562;-82
2021/03/01 00:50:01;;;;;;;241.57;225.07;;;0.90;99.90;;;;;;5018842;28;20534;-82
2021/03/01 00:52:29;;;;;;;260.73;242.33;;;0.90;99.90;;;;;;5032536;28;20517;-82
2021/03/01 00:54:59;;;;;;;243.23;224.60;;;1.00;99.90;;;;;;5025063;28;20485;-82
2021/03/01 00:57:26;;;;;;;261.27;241.97;;;0.90;99.90;;;;;;5013011;28;20458;-82
2021/03/01 00:59:52;;;;;;;261.13;241.33;;;1.10;99.90;;;;;;5017829;28;20464;-82
2021/03/01 01:02:19;;;;;;;248.63;229.70;;;1.10;99.90;;;;;;5032760;28;20959;-82
2021/03/01 01:04:48;;;;;;;252.43;233.73;;;0.90;99.90;;;;;;5032214;28;20518;-82
2021/03/01 01:07:15;;;;;;;254.53;233.43;;;0.70;99.90;;;;;;5016233;28;20840;-82
2021/03/01 01:09:58;;;;;;;245.77;223.82;;;0.70;99.90;;;;;;5023669;28;20467;-82
2021/03/01 01:12:35;;;;;;;251.93;232.67;;;0.60;99.90;;;;;;5035939;28;20204;-82
2021/03/01 01:15:06;;;;;;;238.97;221.60;;;0.60;99.90;;;;;;5024584;28;21067;-82
2021/03/01 01:17:36;;;;;;;247.50;229.00;;;0.60;99.90;;;;;;5016119;28;20453;-82
2021/03/01 01:20:05;;;;;;;239.43;222.83;;;0.50;99.90;;;;;;5026403;28;20448;-82
2021/03/01 01:22:31;;;;;;;253.30;234.60;;;0.60;99.90;;;;;;5028506;28;20449;-82
2021/03/01 01:24:59;;;;;;;230.60;214.90;;;0.60;99.90;;;;;;5032637;28;20975;-82
2021/03/01 01:27:29;;;;;;;242.83;225.63;;;0.40;99.90;;;;;;5035769;28;20484;-82
2021/03/01 01:30:00;;;;;;;234.90;217.97;;;0.30;99.90;;;;;;5024182;28;20564;-82
2021/03/01 01:32:26;;;;;;;242.07;222.87;;;0.30;99.90;;;;;;5032666;28;20510;-82
2021/03/01 01:34:55;;;;;;;220.17;201.97;;;0.20;99.90;;;;;;5036036;28;20489;-83
2021/03/01 01:37:23;;;;;;;235.33;214.10;;;0.40;99.90;;;;;;5020384;28;20453;-82
2021/03/01 01:39:49;;;;;;;227.07;206.48;;;0.30;99.90;;;;;;5025300;28;20971;-82
2021/03/01 01:42:28;;;;;;;221.15;202.50;;;0.60;99.90;;;;;;5035574;28;20220;-82
2021/03/01 01:44:59;;;;;;;219.75;198.65;;;0.40;99.90;;;;;;5024347;28;20260;-82
2021/03/01 01:47:29;;;;;;;207.63;187.97;;;0.40;99.90;;;;;;5015618;28;20228;-82
2021/03/01 01:49:56;;;;;;;196.70;178.53;;;0.40;99.90;;;;;;5026217;28;20510;-82
2021/03/01 01:52:23;;;;;;;197.07;179.00;;;0.40;99.90;;;;;;5035253;28;21053;-82
2021/03/01 01:54:49;;;;;;;210.17;187.93;;;0.40;99.90;;;;;;5024792;28;20511;-83
2021/03/01 01:57:20;;;;;;;210.33;189.53;;;0.20;99.90;;;;;;5015451;28;20527;-82
2021/03/01 01:59:47;;;;;;;207.13;189.20;;;0.30;99.90;;;;;;5016456;28;20457;-82
2021/03/01 02:02:16;;;;;;;193.60;174.35;;;0.30;99.90;;;;;;5015340;28;20543;-82
2021/03/01 02:04:48;;;;;;;217.53;194.70;;;0.20;99.90;;;;;;5024337;28;20189;-82
2021/03/01 02:07:32;;;;;;;193.27;176.07;;;0.00;99.90;;;;;;5034899;28;20484;-82
2021/03/01 02:10:11;;;;;;;203.87;184.70;;;0.00;99.90;;;;;;5023057;28;20202;-82
2021/03/01 02:12:48;;;;;;;202.07;179.87;;;-0.10;99.90;;;;;;5015172;28;20484;-83
2021/03/01 02:15:19;;;;;;;202.67;179.57;;;-0.10;99.90;;;;;;5026823;28;20480;-83
2021/03/01 02:17:45;;;;;;;198.45;178.50;;;0.00;99.90;;;;;;5034862;28;20561;-83
2021/03/01 02:20:13;;;;;;;196.50;175.33;;;0.00;99.90;;;;;;5023293;28;20253;-83
2021/03/01 02:22:49;;;;;;;201.27;167.20;;;0.10;99.90;;;;;;5015211;28;20449;-82
2021/03/01 02:25:19;;;;;;;196.70;168.23;;;0.20;99.90;;;;;;5023479;28;20304;-83
2021/03/01 02:27:49;;;;;;;193.37;172.50;;;0.20;99.90;;;;;;5034535;28;20488;-83
2021/03/01 02:30:21;;;;;;;190.40;165.25;;;0.00;99.90;;;;;;5023416;28;20507;-82
2021/03/01 02:32:54;;;;;;;198.55;172.00;;;-0.20;99.90;;;;;;5014841;28;20205;-83
2021/03/01 02:35:41;;;;;;;189.60;163.98;;;-0.20;99.90;;;;;;5025373;28;20194;-82
2021/03/01 02:38:13;;;;;;;214.52;176.45;;;-0.20;99.90;;;;;;5034498;28;20202;-83
2021/03/01 02:40:41;;;;;;;192.03;170.13;;;-0.30;99.90;;;;;;5032120;28;20186;-82
2021/03/01 02:43:12;;;;;;;192.60;170.82;;;-0.10;99.90;;;;;;5034428;28;20467;-82
2021/03/01 02:45:40;;;;;;;217.90;170.53;;;-0.10;99.90;;;;;;5017154;28;20205;-82
2021/03/01 02:48:11;;;;;;;211.82;173.00;;;0.00;99.90;;;;;;5014351;28;21000;-83
2021/03/01 02:50:45;;;;;;;186.33;166.53;;;-0.20;99.90;;;;;;5015526;28;20202;-82
2021/03/01 02:53:13;;;;;;;297.67;192.13;;;-0.30;99.90;;;;;;5024568;28;20473;-82
2021/03/01 02:55:42;;;;;;;191.87;166.17;;;-0.30;99.90;;;;;;5033195;28;20487;-82
2021/03/01 02:58:12;;;;;;;197.63;166.35;;;-0.30;99.90;;;;;;5032322;28;20461;-82
2021/03/01 03:00:41;;;;;;;214.80;191.60;;;-0.30;99.90;;;;;;5034381;28;20201;-82
2021/03/01 03:03:11;;;;;;;218.00;194.80;;;-0.40;99.90;;;;;;5027472;28;20617;-82
2021/03/01 03:05:39;;;;;;;251.85;206.48;;;-0.40;99.90;;;;;;5014137;28;20453;-82
2021/03/01 03:08:07;;;;;;;204.35;182.43;;;-0.40;99.90;;;;;;5019325;28;20217;-82
2021/03/01 03:10:37;;;;;;;208.52;186.02;;;-0.30;99.90;;;;;;5032935;28;20194;-82
2021/03/01 03:13:09;;;;;;;209.27;188.35;;;-0.30;99.90;;;;;;5028734;28;20191;-82
2021/03/01 03:15:42;;;;;;;225.82;203.57;;;-0.40;99.90;;;;;;5014076;28;20647;-82
2021/03/01 03:18:14;;;;;;;232.87;199.53;;;-0.40;99.90;;;;;;5018482;28;20200;-82
2021/03/01 03:20:43;;;;;;;236.65;198.90;;;-0.50;99.90;;;;;;5033582;28;20494;-82
2021/03/01 03:23:09;;;;;;;260.33;198.85;;;-0.50;99.90;;;;;;5029028;28;20194;-82
2021/03/01 03:25:40;;;;;;;254.02;200.90;;;-0.40;99.90;;;;;;5012031;28;20202;-82
2021/03/01 03:28:11;;;;;;;234.73;194.55;;;-0.40;99.90;;;;;;5016875;28;20213;-82
2021/03/01 03:30:39;;;;;;;231.23;192.07;;;-0.20;99.90;;;;;;5033301;28;20206;-82
2021/03/01 03:33:35;;;;;;;;;;;;;;;;;;;;;
2021/03/01 03:36:12;;;;;;;268.85;195.55;;;0.00;99.90;;;;;;5013768;28;20715;-82
2021/03/01 03:38:58;;;;;;;;;;;;;;;;;;;;;
2021/03/01 03:41:43;;;;;;;207.57;185.63;;;-0.20;99.90;;;;;;5031510;28;20185;-83
2021/03/01 03:44:15;;;;;;;234.63;188.77;;;-0.30;99.90;;;;;;5028123;28;20196;-82
2021/03/01 03:46:41;;;;;;;223.30;183.93;;;-0.30;99.90;;;;;;5022501;28;20654;-82
2021/03/01 03:49:11;;;;;;;265.75;190.75;;;-0.30;99.90;;;;;;5032937;28;20209;-82
2021/03/01 03:51:39;;;;;;;234.63;191.25;;;-0.40;99.90;;;;;;5032847;28;20727;-82
2021/03/01 03:54:18;;;;;;;227.30;180.52;;;-0.50;99.90;;;;;;5013153;28;20194;-82
2021/03/01 03:56:56;;;;;;;251.05;181.65;;;-0.40;99.90;;;;;;5013312;28;20198;-82
2021/03/01 03:59:33;;;;;;;249.43;166.43;;;-0.30;99.90;;;;;;5013299;28;20280;-82
2021/03/01 04:02:11;;;;;;;223.10;175.33;;;-0.30;99.90;;;;;;5013327;28;20194;-82
2021/03/01 04:04:40;;;;;;;218.55;159.15;;;-0.40;99.90;;;;;;5018730;28;20831;-82
2021/03/01 04:07:07;;;;;;;240.85;166.13;;;-0.50;99.90;;;;;;5032879;28;20228;-82
2021/03/01 04:09:50;;;;;;;220.73;178.65;;;-0.80;99.90;;;;;;5031879;28;20196;-82
2021/03/01 04:13:04;;;;;;;;;;;;;;;;;;;;;
2021/03/01 04:15:37;;;;;;;219.90;170.13;;;-0.70;99.90;;;;;;5021109;28;20194;-83
2021/03/01 04:18:21;;;;;;;218.90;160.68;;;-0.60;99.90;;;;;;5024834;28;20651;-83
2021/03/01 04:27:05;;;;;;;217.40;167.10;;;-0.70;99.90;;;;;;4955822;28;21010;-82
2021/03/01 04:33:28;;;;;;;220.48;172.60;;;-0.60;99.90;;;;;;4922439;28;20207;-82
2021/03/01 04:36:15;;;;;;;;;;;;;;;;;;;;;
2021/03/01 04:41:58;;;;;;;210.27;161.60;;;-0.60;99.90;;;;;;4917549;29;20215;-82
2021/03/01 04:44:32;;;;;;;218.65;167.70;;;-0.50;99.90;;;;;;5013578;28;20665;-82
2021/03/01 04:47:12;;;;;;;267.23;166.65;;;-0.70;99.90;;;;;;5016731;28;20306;-82
2021/03/01 04:49:45;;;;;;;281.20;193.10;;;-0.60;99.90;;;;;;5017336;28;20214;-82
2021/03/01 04:52:13;;;;;;;252.07;175.93;;;-0.50;99.90;;;;;;5017307;28;20214;-81
2021/03/01 04:54:41;;;;;;;252.73;179.90;;;-0.40;99.90;;;;;;5035260;28;20202;-82
2021/03/01 04:57:13;;;;;;;238.50;161.05;;;-0.30;99.90;;;;;;5021985;28;20229;-82
2021/03/01 04:59:44;;;;;;;200.90;163.98;;;-0.40;99.90;;;;;;5016734;28;20198;-82
2021/03/01 05:02:11;;;;;;;247.65;171.80;;;-0.50;99.90;;;;;;5019168;28;20245;-81
2021/03/01 05:04:37;;;;;;;226.88;172.18;;;-0.70;99.90;;;;;;5032803;28;20548;-80
2021/03/01 05:07:07;;;;;;;247.75;168.73;;;-0.70;99.90;;;;;;5025273;28;20222;-82
2021/03/01 05:09:53;;;;;;;231.00;170.85;;;-0.70;99.90;;;;;;5017297;28;20249;-82
2021/03/01 05:13:06;;;;;;;236.13;169.52;;;-0.40;99.90;;;;;;5021337;28;20198;-82
2021/03/01 05:15:35;;;;;;;217.83;158.53;;;-0.60;99.90;;;;;;4926088;28;20198;-82
2021/03/01 05:18:04;;;;;;;181.40;157.30;;;-0.70;99.90;;;;;;5000538;28;20471;-82
2021/03/01 05:20:46;;;;;;;210.00;157.35;;;-0.90;99.90;;;;;;5031609;28;20193;-82
2021/03/01 05:23:14;;;;;;;233.77;169.32;;;-0.70;99.90;;;;;;5030626;28;20192;-82
2021/03/01 05:25:42;;;;;;;236.43;174.57;;;-0.60;99.90;;;;;;5031586;28;20197;-82
2021/03/01 05:28:24;;;;;;;188.30;161.80;;;-0.80;99.90;;;;;;5028020;28;20221;-82
2021/03/01 05:30:51;;;;;;;252.25;164.52;;;-0.70;99.90;;;;;;5019402;28;20581;-82
2021/03/01 05:33:19;;;;;;;241.02;158.10;;;-0.70;99.90;;;;;;5034002;28;20198;-82
2021/03/01 05:35:55;;;;;;;;;;;;;;;;;;;;;
2021/03/01 05:38:51;;;;;;;252.23;148.88;;;-0.90;99.90;;;;;;5030518;28;20195;-82
2021/03/01 05:41:20;;;;;;;239.18;151.60;;;-0.90;99.90;;;;;;5015834;28;20198;-82
2021/03/01 05:43:58;;;;;;;;;;;;;;;;;;;;;
2021/03/01 05:49:36;;;;;;;198.48;145.82;;;-0.90;99.90;;;;;;5016702;28;20650;-82
2021/03/01 05:52:07;;;;;;;206.07;137.43;;;-1.00;99.90;;;;;;5024529;28;20212;-83
2021/03/01 05:54:46;;;;;;;183.05;147.40;;;-1.00;99.90;;;;;;5026907;28;20688;-82
2021/03/01 05:57:32;;;;;;;189.68;136.93;;;-1.20;99.90;;;;;;5035553;28;20220;-82
2021/03/01 06:00:10;;;;;;;233.50;149.43;;;-1.30;99.90;;;;;;5034761;28;20201;-82
2021/03/01 06:02:57;;;;;;;227.18;160.40;;;-1.40;99.90;;;;;;5032452;28;20197;-82
2021/03/01 06:05:28;;;;;;;220.02;146.57;;;-1.40;99.90;;;;;;4974606;28;20192;-82
2021/03/01 06:08:09;;;;;;;297.23;158.77;;;-1.60;99.90;;;;;;4984416;28;20215;-82
2021/03/01 06:10:36;;;;;;;187.57;148.75;;;-1.40;99.90;;;;;;4972856;28;20207;-82
2021/03/01 06:13:02;;;;;;;196.52;144.73;;;-1.30;99.90;;;;;;5014919;28;20198;-81
2021/03/01 06:15:30;;;;;;;250.18;140.57;;;-1.30;99.90;;;;;;5016453;28;20235;-81
2021/03/01 06:18:11;;;;;;;259.63;147.20;;;-1.30;99.90;;;;;;5021830;28;20206;-82
2021/03/01 06:20:40;;;;;;;229.10;148.45;;;-1.30;99.90;;;;;;5034883;28;20193;-82
2021/03/01 06:23:08;;;;;;;222.50;138.70;;;-1.30;99.90;;;;;;5017157;28;20214;-82
2021/03/01 06:25:39;;;;;;;195.57;133.70;;;-1.20;99.90;;;;;;5014259;28;20195;-82
2021/03/01 06:28:10;;;;;;;229.50;135.70;;;-1.40;99.90;;;;;;5015902;28;20234;-83
2021/03/01 06:30:46;;;;;;;239.77;138.80;;;-1.40;99.90;;;;;;5028754;28;20197;-82
2021/03/01 06:33:46;;;;;;;266.48;149.93;;;-1.50;99.90;;;;;;5028325;28;20221;-82
2021/03/01 06:36:19;;;;;;;311.00;150.75;;;-1.40;99.90;;;;;;5014667;28;20566;-83
2021/03/01 06:38:47;;;;;;;284.98;142.63;;;-1.30;99.90;;;;;;5016428;28;20317;-82
2021/03/01 06:41:18;;;;;;;436.98;174.82;;;-1.30;99.90;;;;;;5032915;28;20251;-82
2021/03/01 06:43:57;;;;;;;440.95;157.15;;;-1.30;99.90;;;;;;5023347;28;20198;-81
2021/03/01 06:46:25;;;;;;;430.15;161.32;;;-1.20;99.90;;;;;;5032320;28;20189;-82
2021/03/01 06:48:54;;;;;;;421.50;168.18;;;-1.00;99.90;;;;;;5025068;28;20218;-80
2021/03/01 06:51:22;;;;;;;487.30;172.55;;;-1.00;99.90;;;;;;5014314;28;20214;-82
2021/03/01 06:54:01;;;;;;;971.17;259.60;;;-0.80;99.90;;;;;;5020770;28;20240;-82
2021/03/01 06:56:40;;;;;;;394.38;188.27;;;-0.70;99.90;;;;;;5034068;28;20201;-82
2021/03/01 06:59:11;;;;;;;720.88;204.52;;;-0.70;99.90;;;;;;5024167;28;20658;-82
2021/03/01 07:01:44;;;;;;;633.28;200.43;;;-0.60;99.90;;;;;;5014226;28;20206;-81
2021/03/01 07:04:30;;;;;;;1210.15;285.67;;;-0.50;99.90;;;;;;5023731;28;20653;-83
2021/03/01 07:07:03;;;;;;;774.28;227.48;;;-0.40;99.90;;;;;;5033900;28;20203;-83
2021/03/01 07:09:33;;;;;;;813.17;224.00;;;-0.20;99.90;;;;;;5020944;28;20194;-83
2021/03/01 07:11:59;;;;;;;654.53;216.80;;;-0.10;99.90;;;;;;5014107;28;20203;-82
2021/03/01 07:14:27;;;;;;;690.38;216.05;;;-0.10;99.90;;;;;;5029375;28;20531;-80
2021/03/01 07:16:55;;;;;;;879.03;245.52;;;0.00;99.90;;;;;;5033722;28;20196;-81
2021/03/01 07:19:23;;;;;;;488.70;204.60;;;0.00;99.90;;;;;;5033296;28;20201;-82
2021/03/01 07:21:51;;;;;;;638.70;230.10;;;0.10;99.90;;;;;;5033686;28;20543;-81
2021/03/01 07:24:21;;;;;;;782.13;250.33;;;0.00;99.90;;;;;;5018440;28;20318;-80
2021/03/01 07:26:48;;;;;;;448.07;200.30;;;0.10;99.90;;;;;;5014042;28;20476;-80
2021/03/01 07:29:16;;;;;;;812.30;281.10;;;0.10;99.90;;;;;;5026168;28;20484;-81
2021/03/01 07:31:48;;;;;;;472.57;220.40;;;0.20;99.90;;;;;;5033572;28;20594;-80
2021/03/01 07:34:16;;;;;;;541.70;217.10;;;0.20;99.90;;;;;;5022249;28;20453;-81
2021/03/01 07:40:35;;;;;;;299.10;199.57;;;0.30;99.90;;;;;;4977344;28;20445;-82
2021/03/01 07:43:03;;;;;;;376.43;201.40;;;0.30;99.90;;;;;;4985889;28;20454;-82
2021/03/01 07:45:41;;;;;;;322.13;211.63;;;0.50;99.90;;;;;;5014017;28;20445;-83
2021/03/01 07:48:16;;;;;;;429.43;214.33;;;0.40;99.90;;;;;;5011968;28;20531;-81
2021/03/01 07:50:46;;;;;;;345.30;206.23;;;0.60;99.90;;;;;;5011945;28;20495;-81
2021/03/01 07:53:44;;;;;;;445.20;216.80;;;0.70;99.90;;;;;;5031785;28;20456;-81
2021/03/01 07:56:52;;;;;;;318.57;227.33;;;0.80;99.90;;;;;;5031115;28;20489;-80
2021/03/01 07:59:32;;;;;;;316.50;225.97;;;1.10;99.90;;;;;;5002305;28;20503;-80
2021/03/01 08:02:13;;;;;;;259.43;220.40;;;1.20;99.90;;;;;;5011449;28;20898;-79
2021/03/01 08:04:39;;;;;;;329.80;252.67;;;1.50;99.90;;;;;;5012916;28;20984;-80
2021/03/01 08:07:06;;;;;;;265.53;238.97;;;1.60;99.90;;;;;;5011806;28;20898;-79
2021/03/01 08:09:53;;;;;;;266.60;239.30;;;1.90;99.90;;;;;;5026991;28;20456;-79
2021/03/01 08:13:01;;;;;;;264.10;241.20;;;2.00;99.90;;;;;;5023910;28;20495;-79
2021/03/01 08:15:42;;;;;;;272.53;248.67;;;2.20;99.90;;;;;;5011602;28;21000;-79
2021/03/01 08:18:11;;;;;;;284.67;259.30;;;2.30;99.90;;;;;;5023129;28;20491;-79
2021/03/01 08:20:53;;;;;;;290.33;264.47;;;2.60;99.90;;;;;;5018477;28;20531;-80
2021/03/01 08:23:21;;;;;;;281.50;257.53;;;2.70;99.90;;;;;;5028537;28;20517;-79
2021/03/01 08:25:57;;;;;;;306.07;281.00;;;2.90;99.90;;;;;;5018545;28;20481;-79
2021/03/01 08:28:42;;;;;;;297.37;274.93;;;2.90;99.90;;;;;;5019516;28;20485;-79
2021/03/01 08:31:33;;;;;;;307.90;282.00;;;3.10;99.90;;;;;;5026971;28;20540;-80
2021/03/01 08:34:31;;;;;;;308.63;285.20;;;3.20;99.90;;;;;;5027877;28;20539;-80
2021/03/01 08:36:59;;;;;;;341.93;320.03;;;3.40;99.90;;;;;;5026431;28;20472;-81
2021/03/01 08:40:00;;;;;;;333.57;311.27;;;3.50;99.90;;;;;;5022092;28;20449;-80
2021/03/01 08:42:46;;;;;;;343.50;323.00;;;3.50;99.90;;;;;;5021554;28;21009;-81
2021/03/01 08:45:19;;;;;;;342.03;321.73;;;3.50;99.90;;;;;;5032279;28;20824;-80
2021/03/01 08:47:52;;;;;;;329.37;308.63;;;3.80;99.90;;;;;;5031425;28;20484;-80
2021/03/01 08:50:27;;;;;;;351.17;333.30;;;3.90;99.90;;;;;;5028698;28;20559;-81
2021/03/01 08:52:54;;;;;;;354.93;334.90;;;3.90;99.90;;;;;;5012225;28;20445;-80
2021/03/01 08:55:21;;;;;;;376.77;356.30;;;4.00;99.90;;;;;;5031147;28;20509;-80
2021/03/01 08:58:02;;;;;;;362.13;342.80;;;4.00;99.90;;;;;;5030861;28;20655;-77
2021/03/01 09:00:30;;;;;;;367.53;347.07;;;4.20;99.90;;;;;;5011751;28;20473;-79
2021/03/01 09:03:13;;;;;;;365.60;346.13;;;4.30;99.90;;;;;;5011911;28;20540;-80
2021/03/01 09:05:40;;;;;;;378.87;359.37;;;4.30;99.90;;;;;;5016241;28;20445;-81
2021/03/01 09:08:07;;;;;;;388.97;366.77;;;4.40;99.90;;;;;;5016039;28;20936;-79
2021/03/01 09:10:35;;;;;;;374.63;354.80;;;4.50;99.90;;;;;;5014823;28;20913;-80
2021/03/01 09:13:01;;;;;;;383.13;363.23;;;4.50;99.90;;;;;;5022057;28;20453;-80
2021/03/01 09:15:28;;;;;;;379.40;359.57;;;4.70;99.90;;;;;;5021929;28;20500;-80
2021/03/01 09:17:54;;;;;;;375.53;355.73;;;4.90;99.90;;;;;;5031407;28;20894;-80
2021/03/01 09:20:22;;;;;;;339.67;321.63;;;5.30;99.90;;;;;;5013486;28;20445;-80
2021/03/01 09:22:48;;;;;;;285.03;270.10;;;5.50;99.90;;;;;;5014647;28;20473;-80
2021/03/01 09:25:26;;;;;;;234.33;219.83;;;5.60;99.90;;;;;;5022102;28;20527;-80
2021/03/01 09:27:53;;;;;;;192.90;180.87;;;5.70;99.90;;;;;;5032650;28;20492;-79
2021/03/01 09:30:21;;;;;;;136.43;126.07;;;6.30;99.90;;;;;;5025981;28;20487;-80
2021/03/01 09:32:59;;;;;;;95.53;88.03;;;6.50;99.90;;;;;;5029865;28;20461;-81
2021/03/01 09:35:28;;;;;;;72.77;65.90;;;6.80;99.90;;;;;;5031779;28;20963;-81
2021/03/01 09:37:55;;;;;;;60.73;54.90;;;7.10;99.90;;;;;;5032094;28;20884;-80
2021/03/01 09:40:23;;;;;;;62.23;56.40;;;7.50;99.90;;;;;;5028566;28;20448;-81
2021/03/01 09:42:51;;;;;;;45.53;40.93;;;7.70;99.90;;;;;;5018944;28;20551;-79
2021/03/01 09:45:19;;;;;;;43.40;34.53;;;8.10;99.90;;;;;;5033410;28;21027;-79
2021/03/01 09:47:48;;;;;;;40.33;34.33;;;8.00;99.90;;;;;;5030129;28;21013;-80
2021/03/01 09:50:16;;;;;;;39.10;23.97;;;8.20;99.90;;;;;;5014820;28;20477;-80
2021/03/01 09:52:46;;;;;;;33.03;20.60;;;8.50;99.90;;;;;;5015488;28;20544;-80
2021/03/01 09:55:12;;;;;;;31.70;19.40;;;8.90;99.90;;;;;;5014185;28;20535;-80
2021/03/01 09:57:39;;;;;;;33.63;21.93;;;9.20;97.40;;;;;;5033370;28;20495;-80
2021/03/01 10:00:25;;;;;;;30.00;17.97;;;9.40;89.80;;;;;;5034607;28;20479;-81
2021/03/01 10:02:56;;;;;;;25.50;15.27;;;9.70;73.80;;;;;;5032638;28;20881;-81
2021/03/01 10:05:23;;;;;;;30.03;14.53;;;9.70;64.60;;;;;;5030268;28;20452;-81
2021/03/01 10:07:59;;;;;;;30.93;16.10;;;9.50;56.80;;;;;;5033573;28;20543;-81
2021/03/01 10:10:33;;;;;;;28.50;15.70;;;10.10;54.40;;;;;;5021631;28;20484;-81
2021/03/01 10:13:00;;;;;;;27.10;16.13;;;10.60;44.40;;;;;;5015030;28;20515;-81
2021/03/01 10:15:27;;;;;;;33.70;17.43;;;11.40;38.80;;;;;;5017196;28;20447;-80
2021/03/01 10:18:07;;;;;;;30.63;16.47;;;11.60;30.60;;;;;;5025621;28;21026;-81
2021/03/01 10:20:33;;;;;;;28.90;16.80;;;12.00;23.90;;;;;;5024331;28;20453;-81
2021/03/01 10:23:03;;;;;;;26.30;15.63;;;11.70;26.20;;;;;;5017465;28;20459;-81
2021/03/01 10:25:33;;;;;;;26.40;14.70;;;12.20;19.00;;;;;;5021521;28;20483;-83
2021/03/01 10:28:00;;;;;;;29.97;15.17;;;12.60;21.70;;;;;;5018612;28;20492;-82
2021/03/01 10:30:26;;;;;;;28.03;14.97;;;13.00;20.10;;;;;;5019875;28;20891;-81
2021/03/01 10:33:04;;;;;;;24.27;12.70;;;13.30;14.00;;;;;;5032619;28;20453;-82
2021/03/01 10:35:38;;;;;;;30.00;15.27;;;12.60;11.90;;;;;;5030412;28;20451;-82
2021/03/01 10:38:11;;;;;;;28.70;14.87;;;12.70;11.80;;;;;;5025410;28;20565;-82
2021/03/01 10:40:37;;;;;;;25.80;13.90;;;12.80;12.30;;;;;;5031546;28;20873;-81
2021/03/01 10:43:11;;;;;;;25.30;14.60;;;13.00;8.70;;;;;;5030436;28;20445;-81
2021/03/01 10:45:44;;;;;;;23.37;13.40;;;13.00;7.60;;;;;;5019490;28;20488;-81
2021/03/01 10:48:11;;;;;;;24.40;13.37;;;13.10;7.20;;;;;;5026591;28;20483;-81
2021/03/01 10:50:38;;;;;;;24.33;13.60;;;13.60;7.40;;;;;;5025832;28;20546;-81
2021/03/01 10:53:07;;;;;;;26.80;13.67;;;14.20;6.20;;;;;;5014505;28;20822;-80
2021/03/01 10:55:33;;;;;;;25.70;14.40;;;14.10;5.40;;;;;;5018284;28;20453;-81
2021/03/01 10:57:59;;;;;;;27.10;13.80;;;14.40;4.90;;;;;;5019701;28;20962;-81
2021/03/01 11:00:30;;;;;;;26.63;11.73;;;13.90;5.20;;;;;;5025873;28;20478;-84
2021/03/01 11:02:56;;;;;;;28.30;11.70;;;14.00;2.90;;;;;;5015516;28;20454;-83
2021/03/01 11:05:25;;;;;;;21.90;12.50;;;14.10;3.50;;;;;;5033993;28;20514;-84
2021/03/01 11:07:52;;;;;;;21.50;10.20;;;14.30;2.30;;;;;;5034147;28;20523;-82
2021/03/01 11:10:25;;;;;;;23.03;12.27;;;13.80;2.50;;;;;;5032760;28;20814;-84
2021/03/01 11:12:52;;;;;;;23.60;12.17;;;13.80;6.10;;;;;;5033879;28;20457;-84
2021/03/01 11:21:58;;;;;;;;;;;;;;;;;;;;;
2021/03/01 11:24:45;;;;;;;21.50;11.40;;;15.50;1.00;;;;;;5022534;28;20457;-83
2021/03/01 11:27:37;;;;;;;25.60;12.10;;;15.50;1.00;;;;;;5032088;28;20957;-83
2021/03/01 11:30:59;;;;;;;;;;;;;;;;;;;;;
2021/03/01 11:34:02;;;;;;;23.60;11.70;;;15.70;1.00;;;;;;4980385;28;20455;-83
2021/03/01 11:36:41;;;;;;;22.53;11.13;;;16.50;1.00;;;;;;5031704;28;20848;-83
2021/03/01 11:39:27;;;;;;;24.27;12.80;;;16.20;1.00;;;;;;5030654;28;20498;-83
2021/03/01 11:42:10;;;;;;;22.83;12.10;;;16.20;1.00;;;;;;5032198;28;20489;-84
2021/03/01 11:47:42;;;;;;;23.63;11.10;;;16.80;1.00;;;;;;5031068;28;20454;-82
2021/03/01 11:50:09;;;;;;;23.83;12.43;;;16.60;1.00;;;;;;5032648;28;20490;-82
2021/03/01 11:52:39;;;;;;;25.33;12.77;;;16.20;1.00;;;;;;5032817;28;20475;-82
2021/03/01 11:55:08;;;;;;;22.87;12.70;;;16.20;1.00;;;;;;5031739;28;20463;-80
2021/03/01 11:57:34;;;;;;;23.63;12.10;;;16.90;1.00;;;;;;5032545;28;20472;-80
2021/03/01 12:00:35;;;;;;;27.23;13.13;;;17.70;1.00;;;;;;5031824;28;20786;-80
2021/03/01 12:03:06;;;;;;;24.93;12.70;;;17.30;1.00;;;;;;5032436;28;20458;-80
2021/03/01 12:05:33;;;;;;;26.20;13.33;;;17.60;1.00;;;;;;5032157;28;20462;-80
2021/03/01 12:07:59;;;;;;;25.77;13.07;;;17.90;1.00;;;;;;5032351;28;20546;-81
2021/03/01 12:10:35;;;;;;;21.83;12.17;;;18.50;1.00;;;;;;5031375;28;20452;-81
2021/03/01 12:13:05;;;;;;;25.20;13.20;;;18.60;1.00;;;;;;5032252;28;20469;-80
2021/03/01 12:15:33;;;;;;;25.30;12.70;;;17.00;1.00;;;;;;5032432;28;20452;-81
2021/03/01 12:18:13;;;;;;;27.73;12.57;;;17.50;1.00;;;;;;5151480;27;20564;-80
2021/03/01 12:20:41;;;;;;;23.43;11.37;;;18.10;1.00;;;;;;5151553;27;20809;-80
2021/03/01 12:23:10;;;;;;;27.03;10.73;;;19.10;1.00;;;;;;5151329;27;20443;-80
2021/03/01 12:25:40;;;;;;;22.73;10.10;;;19.10;1.00;;;;;;5150005;27;20445;-80
2021/03/01 12:28:11;;;;;;;22.87;12.07;;;19.50;1.00;;;;;;5151558;27;20460;-80
2021/03/01 12:30:39;;;;;;;24.07;11.97;;;19.70;1.00;;;;;;5151403;27;20796;-80
2021/03/01 12:33:08;;;;;;;26.50;13.53;;;18.70;1.00;;;;;;5150879;27;20451;-80
2021/03/01 12:35:44;;;;;;;23.83;13.13;;;18.40;1.00;;;;;;5151022;27;20507;-80
2021/03/01 12:38:10;;;;;;;24.70;13.37;;;19.20;1.00;;;;;;5151192;27;20945;-80
2021/03/01 12:40:44;;;;;;;25.60;12.10;;;18.80;1.00;;;;;;5149837;27;20824;-79
2021/03/01 12:43:14;;;;;;;24.03;11.87;;;18.40;1.00;;;;;;5150844;27;20442;-80
2021/03/01 12:45:40;;;;;;;23.97;12.70;;;17.70;1.00;;;;;;5151455;27;20502;-80
2021/03/01 12:48:12;;;;;;;25.53;12.30;;;17.70;1.00;;;;;;5151427;27;20834;-80
2021/03/01 12:50:41;;;;;;;22.83;11.27;;;17.90;1.00;;;;;;5151189;27;20450;-80
2021/03/01 12:57:14;;;;;;;;;;;;;;;;;;;;;
2021/03/01 13:02:42;;;;;;;25.20;11.37;;;18.00;1.00;;;;;;5122632;27;20454;-80
2021/03/01 13:05:09;;;;;;;25.67;12.50;;;17.00;1.00;;;;;;5150815;27;20470;-80
2021/03/01 13:07:57;;;;;;;26.30;13.25;;;16.80;1.00;;;;;;5150174;27;20924;-82
2021/03/01 13:11:02;;;;;;;;;;;;;;;;;;;;;
2021/03/01 13:13:31;;;;;;;23.53;12.23;;;17.90;1.00;;;;;;5046645;28;20478;-82
2021/03/01 13:16:10;;;;;;;25.47;10.80;;;18.30;1.00;;;;;;5102263;27;20468;-81
2021/03/01 13:27:33;;;;;;;20.90;11.83;;;17.60;1.00;;;;;;5652481;23;20539;-81
2021/03/01 13:47:14;;;;;;;26.17;12.40;;;18.20;1.00;;;;;;4842111;29;20456;-81
2021/03/01 13:49:48;;;;;;;20.83;7.47;;;17.10;1.00;;;;;;4842222;29;20455;-80
2021/03/01 13:52:14;;;;;;;23.90;11.37;;;15.80;1.00;;;;;;4851982;29;20461;-79
2021/03/01 13:54:40;;;;;;;24.63;9.53;;;15.10;1.00;;;;;;4877914;29;20466;-78
2021/03/01 13:57:07;;;;;;;23.33;11.50;;;14.40;1.00;;;;;;4943734;28;20512;-81
2021/03/01 13:59:34;;;;;;;24.83;11.43;;;14.00;1.00;;;;;;4975921;28;20465;-81
2021/03/01 14:02:00;;;;;;;22.30;10.23;;;13.80;1.00;;;;;;4976124;28;20551;-81
2021/03/01 14:04:27;;;;;;;26.10;12.27;;;13.70;1.00;;;;;;4976201;28;20538;-81